DW2770 Weather Reports


Display with metric or nautical units.
time (UTC)temp
F
wind
direction
speed
MPH
gust
MPH
rain 1hr
in
rain 24hr
in
rain mn
in
humidity
%
barometer
mb
20211016173054 66 270 1.0 4.0 0.00 0.00 0.00 72 1017.1
20211016172554 66 203 4.0 6.0 0.00 0.00 0.00 71 1017.1
20211016172057 65 180 6.0 7.0 0.00 0.00 0.00 71 1017.0
20211016171554 65 203 4.0 4.0 0.00 0.00 0.00 71 1017.1
20211016171057 65 203 4.0 4.0 0.00 0.00 0.00 71 1016.9
20211016170558 65 203 4.0 4.0 0.00 0.00 0.00 71 1016.9
20211016170100 66 248 2.0 4.0 0.00 0.00 0.00 71 1016.9
20211016165554 66 180 6.0 6.0 0.00 0.00 0.00 71 1017.0
20211016165057 66 203 5.0 5.0 0.00 0.00 0.00 72 1016.9
20211016164557 66 225 5.0 5.0 0.00 0.00 0.00 72 1016.9
20211016164054 66 180 3.0 3.0 0.00 0.00 0.00 72 1016.7
20211016163554 66 225 2.0 2.0 0.00 0.00 0.00 74 1016.7
20211016163100 66 45 2.0 5.0 0.00 0.00 0.00 74 1016.7
20211016162555 66 203 5.0 5.0 0.00 0.00 0.00 74 1016.6
20211016162054 66 203 3.0 4.0 0.00 0.00 0.00 73 1016.7
20211016161555 66 180 4.0 6.0 0.00 0.00 0.00 73 1016.6
20211016161054 66 225 6.0 6.0 0.00 0.00 0.00 73 1016.6
20211016160555 66 180 5.0 5.0 0.00 0.00 0.00 72 1016.6
20211016160054 66 225 3.0 3.0 0.00 0.00 0.00 72 1016.6
20211016155557 66 203 3.0 4.0 0.00 0.00 0.00 72 1016.6
20211016155054 66 203 4.0 5.0 0.00 0.00 0.00 72 1016.4
20211016154555 66 225 2.0 6.0 0.00 0.00 0.00 71 1016.6
20211016154054 66 203 6.0 6.0 0.00 0.00 0.00 72 1016.6
20211016153554 66 203 6.0 8.0 0.00 0.00 0.00 72 1016.6
20211016153054 66 203 8.0 8.0 0.00 0.00 0.00 73 1016.6
20211016152555 66 293 5.0 12.0 0.00 0.00 0.00 74 1016.5
20211016152054 67 248 12.0 12.0 0.00 0.00 0.00 73 1016.6
20211016151557 67 248 3.0 10.0 0.00 0.00 0.00 72 1016.6
20211016151054 67 293 2.0 5.0 0.00 0.00 0.00 70 1016.3
20211016150554 67 270 5.0 5.0 0.00 0.00 0.00 70 1016.3
20211016150054 67 293 3.0 3.0 0.00 0.00 0.00 70 1016.3
20211016145554 67 270 0.0 2.0 0.00 0.00 0.00 69 1016.4
20211016145054 67 270 2.0 3.0 0.00 0.00 0.00 69 1016.5
20211016144554 67 338 3.0 5.0 0.00 0.00 0.00 69 1016.4
20211016144054 67 180 2.0 6.0 0.00 0.00 0.00 69 1016.6
20211016143554 68 225 4.0 4.0 0.00 0.00 0.00 69 1016.4
20211016143054 68 293 2.0 9.0 0.00 0.00 0.00 69 1016.5
20211016142554 68 203 9.0 9.0 0.00 0.00 0.00 69 1016.4
20211016142054 68 270 2.0 4.0 0.00 0.00 0.00 69 1016.5
20211016141555 68 225 2.0 6.0 0.00 0.00 0.00 69 1016.3
20211016141054 68 270 4.0 4.0 0.00 0.00 0.00 69 1016.3
20211016140554 68 248 2.0 6.0 0.00 0.00 0.00 69 1016.3
20211016140054 68 270 6.0 6.0 0.00 0.00 0.00 69 1016.2
20211016135557 68 248 3.0 3.0 0.00 0.00 0.00 70 1016.2
20211016135054 68 293 3.0 8.0 0.00 0.00 0.00 70 1016.4
20211016134557 68 315 8.0 8.0 0.00 0.00 0.00 70 1016.3
20211016134055 68 0 0.0 5.0 0.00 0.00 0.00 70 1016.3
20211016133557 68 338 5.0 5.0 0.00 0.00 0.00 70 1016.2
20211016133057 68 248 2.0 2.0 0.00 0.00 0.00 70 1016.3
20211016132554 68 338 2.0 6.0 0.00 0.00 0.00 70 1016.2
20211016132054 68 225 4.0 4.0 0.00 0.00 0.00 70 1016.1
20211016131557 68 180 3.0 7.0 0.00 0.00 0.00 70 1016.2
20211016131054 68 270 10.0 10.0 0.00 0.00 0.00 70 1016.2
20211016130601 68 293 7.0 7.0 0.00 0.00 0.00 69 1016.1
20211016130054 69 293 7.0 9.0 0.00 0.00 0.00 67 1016.1
20211016125600 69 315 11.0 11.0 0.00 0.00 0.00 65 1016.0
20211016125054 68 315 7.0 7.0 0.00 0.00 0.00 65 1016.1
20211016124558 69 248 3.0 6.0 0.00 0.00 0.00 65 1016.2
20211016124057 69 203 4.0 7.0 0.00 0.00 0.00 65 1016.2
20211016123554 69 203 7.0 12.0 0.00 0.00 0.00 66 1016.0
20211016123101 69 225 12.0 12.0 0.00 0.00 0.00 66 1016.2
20211016122555 69 203 6.0 6.0 0.00 0.00 0.00 66 1016.1
20211016122054 69 203 6.0 6.0 0.00 0.00 0.00 66 1016.2
20211016121554 69 338 2.0 2.0 0.00 0.00 0.00 65 1016.2
20211016121054 69 45 3.0 6.0 0.00 0.00 0.00 65 1016.2
20211016120557 69 315 3.0 4.0 0.00 0.00 0.00 65 1016.3
20211016120057 69 203 4.0 9.0 0.00 0.00 0.00 64 1016.3
20211016115600 69 225 3.0 6.0 0.00 0.00 0.00 64 1016.4
20211016115054 69 158 6.0 6.0 0.00 0.00 0.00 63 1016.5
20211016114554 69 248 3.0 4.0 0.00 0.00 0.00 63 1016.6
20211016114057 70 248 9.0 9.0 0.00 0.00 0.00 61 1016.6
20211016113554 70 203 6.0 9.0 0.00 0.00 0.00 61 1016.5
20211016113055 70 203 9.0 15.0 0.00 0.00 0.00 61 1016.5
20211016112557 70 45 3.0 9.0 0.00 0.00 0.00 61 1016.6
20211016112054 70 293 9.0 9.0 0.00 0.00 0.00 61 1016.5
20211016111554 70 270 2.0 6.0 0.00 0.00 0.00 60 1016.6
20211016111054 70 293 7.0 10.0 0.00 0.00 0.00 60 1016.5
20211016110555 70 270 10.0 10.0 0.00 0.00 0.00 60 1016.6
20211016110054 70 203 4.0 10.0 0.00 0.00 0.00 61 1016.5
20211016105554 70 270 3.0 10.0 0.00 0.00 0.00 62 1016.6
20211016105054 70 225 6.0 6.0 0.00 0.00 0.00 63 1016.6
20211016104554 69 270 6.0 12.0 0.00 0.00 0.00 63 1016.7
20211016104054 69 248 12.0 14.0 0.00 0.00 0.00 64 1016.7
20211016103557 69 203 14.0 14.0 0.00 0.00 0.00 64 1016.8
20211016103056 69 248 3.0 6.0 0.00 0.00 0.00 65 1016.7
20211016102554 69 225 8.0 8.0 0.00 0.00 0.00 64 1016.7
20211016102054 69 270 4.0 16.0 0.00 0.00 0.00 64 1016.8
20211016101554 69 225 16.0 16.0 0.00 0.00 0.00 63 1016.8
20211016101054 69 225 9.0 12.0 0.00 0.00 0.00 63 1016.9
20211016100554 69 225 6.0 11.0 0.00 0.00 0.00 62 1016.6
20211016100054 69 225 11.0 11.0 0.00 0.00 0.00 62 1016.7
20211016095554 69 158 3.0 4.0 0.00 0.00 0.00 63 1016.6
20211016095054 68 270 4.0 6.0 0.00 0.00 0.00 63 1016.7
20211016094554 68 248 6.0 6.0 0.00 0.00 0.00 62 1016.6
20211016094057 69 270 3.0 15.0 0.00 0.00 0.00 62 1016.6
20211016093555 69 225 15.0 15.0 0.00 0.00 0.00 62 1016.6
20211016093057 69 203 8.0 8.0 0.00 0.00 0.00 63 1016.5
20211016092557 68 203 2.0 9.0 0.00 0.00 0.00 63 1016.6
20211016092054 68 225 9.0 9.0 0.00 0.00 0.00 63 1016.6
20211016091557 68 248 5.0 9.0 0.00 0.00 0.00 64 1016.7
20211016091054 68 203 8.0 8.0 0.00 0.00 0.00 64 1016.6
20211016090554 68 270 8.0 15.0 0.00 0.00 0.00 63 1016.6
20211016090057 68 248 12.0 12.0 0.00 0.00 0.00 64 1016.5
20211016085557 68 180 8.0 8.0 0.00 0.00 0.00 64 1016.5
20211016085100 67 0 3.0 12.0 0.00 0.00 0.00 64 1016.5
20211016084557 67 203 12.0 12.0 0.00 0.00 0.00 65 1016.4
20211016084057 67 203 6.0 11.0 0.00 0.00 0.00 66 1016.4
20211016083554 67 203 8.0 9.0 0.00 0.00 0.00 66 1016.4
20211016083054 66 180 4.0 10.0 0.00 0.00 0.00 66 1016.4
20211016082558 66 225 10.0 10.0 0.00 0.00 0.00 66 1016.4
20211016082054 66 203 7.0 7.0 0.00 0.00 0.00 66 1016.5
20211016081554 66 225 6.0 7.0 0.00 0.00 0.00 65 1016.4
20211016081057 66 203 4.0 11.0 0.00 0.00 0.00 65 1016.3
20211016080554 66 225 7.0 7.0 0.00 0.00 0.00 65 1016.3
20211016080100 67 225 4.0 6.0 0.00 0.00 0.00 64 1016.2
20211016075557 67 225 9.0 9.0 0.00 0.00 0.00 64 1016.2
20211016075054 67 203 7.0 8.0 0.00 0.00 0.00 64 1016.1
20211016074554 67 225 5.0 8.0 0.00 0.00 0.00 65 1016.1
20211016074057 66 203 5.0 11.0 0.00 0.00 0.00 65 1016.0
20211016073554 66 248 11.0 12.0 0.00 0.00 0.00 65 1016.1
20211016073054 66 203 10.0 11.0 0.00 0.00 0.00 65 1015.9
20211016072557 66 225 6.0 8.0 0.00 0.00 0.00 65 1016.0
20211016072057 66 270 3.0 9.0 0.00 0.00 0.00 65 1015.9
20211016071557 65 225 8.0 9.0 0.00 0.00 0.00 65 1015.9
20211016071054 65 270 9.0 10.0 0.00 0.00 0.00 64 1015.9
20211016070554 65 203 7.0 11.0 0.00 0.00 0.00 64 1015.9
20211016070054 65 203 8.0 8.0 0.00 0.00 0.00 64 1015.9
20211016065554 65 225 7.0 7.0 0.00 0.00 0.00 64 1015.8
20211016065057 65 270 6.0 6.0 0.00 0.00 0.00 64 1015.7
20211016064555 65 180 4.0 8.0 0.00 0.00 0.00 65 1015.5
20211016064057 65 203 2.0 4.0 0.00 0.00 0.00 64 1015.5
20211016063557 65 225 3.0 5.0 0.00 0.00 0.00 64 1015.5
20211016063054 65 203 5.0 8.0 0.00 0.00 0.00 63 1015.4
20211016062554 65 225 8.0 15.0 0.00 0.00 0.00 62 1015.4
20211016062054 66 248 6.0 6.0 0.00 0.00 0.00 61 1015.2
20211016061600 66 225 5.0 5.0 0.00 0.00 0.00 61 1015.1
20211016061054 66 180 4.0 10.0 0.00 0.00 0.00 62 1015.1
20211016060554 66 225 10.0 10.0 0.00 0.00 0.00 62 1015.2
20211016060054 66 203 2.0 6.0 0.00 0.00 0.00 62 1015.2
20211016055554 66 270 6.0 6.0 0.00 0.00 0.00 61 1015.1
20211016055054 66 180 2.0 9.0 0.00 0.00 0.00 61 1015.0
20211016054554 66 315 5.0 10.0 0.00 0.00 0.00 62 1014.9
20211016054054 66 270 4.0 7.0 0.00 0.00 0.00 63 1014.9
20211016053558 66 315 7.0 8.0 0.00 0.00 0.00 62 1015.0
20211016053054 66 248 8.0 10.0 0.00 0.00 0.00 62 1014.8
20211016052554 66 203 3.0 10.0 0.00 0.00 0.00 61 1014.8
20211016052054 65 158 4.0 5.0 0.00 0.00 0.00 61 1014.8
20211016051600 65 203 4.0 7.0 0.00 0.00 0.00 61 1014.7
20211016051057 65 248 7.0 7.0 0.00 0.00 0.00 62 1014.7
20211016050554 65 203 3.0 3.0 0.00 0.00 0.00 61 1014.7
20211016050054 65 225 3.0 6.0 0.00 0.00 0.00 62 1014.6
20211016045554 65 203 13.0 13.0 0.00 0.00 0.00 64 1014.6
20211016045054 65 225 9.0 10.0 0.00 0.00 0.00 64 1014.7
20211016044554 65 293 3.0 7.0 0.00 0.00 0.00 64 1014.4
20211016044054 65 225 8.0 9.0 0.00 0.00 0.00 64 1014.6
20211016043554 65 293 9.0 9.0 0.00 0.00 0.00 63 1014.4
20211016043054 65 248 3.0 5.0 0.00 0.00 0.00 63 1014.3
20211016042557 65 293 5.0 7.0 0.00 0.00 0.00 63 1014.4
20211016042057 66 315 4.0 10.0 0.00 0.00 0.00 63 1014.3
20211016041554 66 248 3.0 6.0 0.00 0.00 0.00 62 1014.3
20211016041054 66 225 6.0 9.0 0.00 0.00 0.00 62 1014.4
20211016040554 66 315 4.0 12.0 0.00 0.00 0.00 62 1014.3
20211016040054 66 225 12.0 12.0 0.00 0.00 0.00 62 1014.1
20211016035555 66 270 6.0 6.0 0.00 0.00 0.00 63 1014.2
20211016035057 66 0 5.0 8.0 0.00 0.00 0.00 63 1014.3
20211016034554 66 248 8.0 9.0 0.00 0.00 0.00 62 1014.2
20211016034054 66 248 12.0 12.0 0.00 0.00 0.00 61 1014.2
20211016033554 66 203 8.0 15.0 0.00 0.00 0.00 62 1014.3
20211016033054 65 270 7.0 14.0 0.00 0.00 0.00 62 1014.3
20211016032557 65 248 12.0 12.0 0.00 0.00 0.00 63 1014.2
20211016032100 65 225 2.0 5.0 0.00 0.00 0.00 64 1014.2
20211016031557 65 270 5.0 16.0 0.00 0.00 0.00 66 1014.0
20211016031054 64 158 9.0 13.0 0.00 0.00 0.00 67 1014.2
20211016030554 64 203 13.0 13.0 0.00 0.00 0.00 67 1014.2
20211016030057 64 203 6.0 6.0 0.00 0.00 0.00 66 1014.2
20211016025557 64 225 5.0 18.0 0.00 0.00 0.00 65 1014.0
20211016025057 64 225 17.0 17.0 0.00 0.00 0.00 65 1014.0
20211016024600 64 225 17.0 17.0 0.00 0.00 0.00 66 1014.1
20211016024054 64 180 17.0 17.0 0.00 0.00 0.00 66 1014.1
20211016023554 64 203 10.0 16.0 0.00 0.00 0.00 65 1013.9
20211016023054 64 203 16.0 16.0 0.00 0.00 0.00 65 1014.0
20211016022554 64 225 9.0 15.0 0.00 0.00 0.00 65 1013.9
20211016022054 64 225 12.0 14.0 0.00 0.00 0.00 65 1014.0
20211016021554 64 225 12.0 14.0 0.00 0.00 0.00 65 1014.1
20211016021054 64 203 12.0 20.0 0.00 0.00 0.00 65 1014.0
20211016020554 64 225 20.0 20.0 0.00 0.00 0.00 64 1014.1
20211016020054 64 248 6.0 14.0 0.00 0.00 0.00 64 1014.2
20211016015558 63 225 11.0 11.0 0.00 0.00 0.00 63 1014.2
20211016015057 63 270 8.0 11.0 0.00 0.00 0.00 63 1014.1
20211016014554 63 225 11.0 15.0 0.00 0.00 0.00 63 1014.2
20211016014057 63 203 7.0 16.0 0.00 0.00 0.00 63 1014.2
20211016013554 63 225 16.0 16.0 0.00 0.00 0.00 63 1014.2
20211016013057 63 225 8.0 20.0 0.00 0.00 0.00 63 1014.3
20211016012557 63 203 10.0 10.0 0.00 0.00 0.00 63 1014.3
20211016012057 63 203 6.0 15.0 0.00 0.00 0.00 63 1014.4
20211016011554 63 248 9.0 12.0 0.00 0.00 0.00 64 1014.4
20211016011054 63 158 10.0 15.0 0.00 0.00 0.00 65 1014.3
20211016010557 62 225 15.0 15.0 0.00 0.00 0.00 65 1014.4
20211016010054 62 203 13.0 13.0 0.00 0.00 0.00 65 1014.4
20211016005554 62 248 10.0 10.0 0.00 0.00 0.00 65 1014.5
20211016005057 62 203 3.0 8.0 0.00 0.00 0.00 65 1014.6
20211016004554 62 203 6.0 6.0 0.00 0.00 0.00 64 1014.7
20211016004054 62 203 6.0 12.0 0.00 0.00 0.00 64 1014.6
20211016003557 62 338 3.0 6.0 0.00 0.00 0.00 64 1014.6
20211016003057 62 225 10.0 10.0 0.00 0.00 0.00 64 1014.7
20211016002557 62 203 6.0 6.0 0.00 0.00 0.00 64 1014.9
20211016002057 62 180 4.0 8.0 0.00 0.00 0.00 63 1014.7
20211016001557 62 203 8.0 11.0 0.00 0.00 0.00 63 1014.9
20211016001054 62 225 11.0 11.0 0.00 0.00 0.00 63 1014.8
20211016000557 62 158 5.0 8.0 0.00 0.00 0.00 62 1014.9
20211016000054 62 203 4.0 11.0 0.00 0.00 0.00 62 1015.0
20211015235554 62 203 5.0 5.0 0.00 0.00 0.00 61 1014.9
20211015235057 62 180 2.0 3.0 0.00 0.00 0.00 61 1014.9
20211015234601 62 248 2.0 6.0 0.00 0.00 0.00 60 1014.9
20211015234054 62 203 6.0 6.0 0.00 0.00 0.00 58 1015.0
20211015233557 62 225 5.0 5.0 0.00 0.00 0.00 58 1015.1
20211015233100 62 203 5.0 5.0 0.00 0.00 0.00 57 1015.0
20211015232554 62 203 5.0 5.0 0.00 0.00 0.00 57 1015.0
20211015232054 62 225 5.0 5.0 0.00 0.00 0.00 56 1015.1
20211015231600 62 203 3.0 6.0 0.00 0.00 0.00 56 1015.1
20211015231054 63 225 6.0 6.0 0.00 0.00 0.00 55 1015.1
20211015230557 63 203 3.0 6.0 0.00 0.00 0.00 55 1015.2
20211015230054 62 248 4.0 6.0 0.00 0.00 0.00 54 1015.3
20211015225554 62 225 3.0 6.0 0.00 0.00 0.00 54 1015.2
20211015225054 62 225 6.0 6.0 0.00 0.00 0.00 54 1015.2
20211015224554 62 180 4.0 6.0 0.00 0.00 0.00 55 1015.4
20211015224057 62 180 3.0 5.0 0.00 0.00 0.00 54 1015.2
20211015223554 62 0 0.0 2.0 0.00 0.00 0.00 54 1015.2
20211015223054 62 293 2.0 4.0 0.00 0.00 0.00 53 1015.1
20211015222554 62 270 2.0 6.0 0.00 0.00 0.00 52 1015.2
20211015222057 62 248 6.0 12.0 0.00 0.00 0.00 51 1015.1
20211015221554 62 248 12.0 12.0 0.00 0.00 0.00 52 1015.1
20211015221057 62 225 3.0 4.0 0.00 0.00 0.00 54 1015.1
20211015220554 62 225 2.0 5.0 0.00 0.00 0.00 53 1015.1
20211015220054 62 270 5.0 9.0 0.00 0.00 0.00 53 1015.1
20211015215554 62 270 8.0 8.0 0.00 0.00 0.00 54 1015.2
20211015215054 62 248 4.0 6.0 0.00 0.00 0.00 54 1015.2
20211015214555 62 203 10.0 10.0 0.00 0.00 0.00 54 1015.1
20211015214054 62 225 6.0 6.0 0.00 0.00 0.00 54 1015.2
20211015213554 62 248 4.0 4.0 0.00 0.00 0.00 53 1015.3
20211015213054 62 270 4.0 7.0 0.00 0.00 0.00 54 1015.2
20211015192550 63 293 13.0 13.0 0.00 0.00 0.00 61 1014.2
20211015192050 63 248 11.0 11.0 0.00 0.00 0.00 61 1014.0
20211015191550 63 225 8.0 11.0 0.00 0.00 0.00 61 1014.1
20211015191050 63 293 5.0 16.0 0.00 0.00 0.00 61 1014.0
20211015190557 63 270 4.0 10.0 0.00 0.00 0.00 60 1014.0
20211015190050 63 225 10.0 10.0 0.00 0.00 0.00 60 1014.0
20211015185553 63 270 6.0 12.0 0.00 0.00 0.00 60 1013.9
20211015185050 63 293 12.0 13.0 0.00 0.00 0.00 60 1013.8
20211015184550 63 270 4.0 15.0 0.00 0.00 0.00 61 1013.6
20211015184051 63 225 9.0 9.0 0.00 0.00 0.00 61 1013.8
20211015183550 63 135 2.0 14.0 0.00 0.00 0.00 61 1013.9
20211015183050 63 270 14.0 14.0 0.00 0.00 0.00 61 1013.9
20211015182551 63 248 5.0 11.0 0.00 0.00 0.00 62 1013.8
20211015182050 63 158 2.0 10.0 0.00 0.00 0.00 61 1013.8
20211015181553 63 203 6.0 6.0 0.00 0.02 0.00 61 1013.8
20211015181051 63 293 5.0 5.0 0.00 0.02 0.00 61 1013.5
20211015180554 63 293 5.0 5.0 0.00 0.02 0.00 59 1013.4
20211015180050 63 270 3.0 3.0 0.00 0.02 0.00 58 1013.3
20211015175551 63 293 6.0 14.0 0.00 0.02 0.00 59 1013.3
20211015175054 63 293 14.0 14.0 0.00 0.02 0.00 60 1013.3
20211015174551 63 293 8.0 8.0 0.00 0.02 0.00 59 1013.3
20211015174050 63 293 7.0 7.0 0.00 0.02 0.00 59 1013.1
20211015173550 63 248 7.0 9.0 0.00 0.02 0.00 59 1013.2